Time;durP1;ratioP1;P1;durP2;ratioP2;P2;SDS_P1;SDS_P2;PMS_P1;PMS_P2;Temp;Humidity;BMP_temperature;BMP_pressure;BME280_temperature;BME280_humidity;BME280_pressure;Samples;Min_cycle;Max_cycle;Signal;HPM_P1;HPM_P2
2023/03/07 00:02:23;;;;;;;;;;;256.70;2252.80;;;;;;5080665;28;20029;-82
2023/03/07 00:04:49;;;;;;;27.95;15.50;;;256.60;2252.80;;;;;;5071927;28;20376;-82
2023/03/07 00:07:15;;;;;;;;;;;256.80;2252.80;;;;;;5073925;28;20021;-81
2023/03/07 00:09:41;;;;;;;26.60;13.63;;;256.80;2252.80;;;;;;5074024;28;20417;-81
2023/03/07 00:12:07;;;;;;;;;;;256.50;2252.80;;;;;;5072888;28;20388;-82
2023/03/07 00:14:33;;;;;;;27.33;14.10;;;256.60;2252.80;;;;;;5076004;28;20372;-78
2023/03/07 00:16:58;;;;;;;28.40;14.23;;;256.70;2252.80;;;;;;5076461;28;20063;-82
2023/03/07 00:19:24;;;;;;;25.52;14.88;;;256.80;2252.80;;;;;;5077273;28;20028;-78
2023/03/07 00:21:50;;;;;;;;;;;256.70;2252.80;;;;;;5085636;28;20051;-82
2023/03/07 00:24:15;;;;;;;24.38;14.02;;;256.50;2252.80;;;;;;5060144;28;20345;-78
2023/03/07 00:26:41;;;;;;;27.08;14.50;;;256.70;2252.80;;;;;;5069578;28;20469;-81
2023/03/07 00:29:07;;;;;;;;;;;256.40;2252.80;;;;;;5065394;28;20043;-78
2023/03/07 00:31:33;;;;;;;31.33;15.10;;;256.10;2252.80;;;;;;5065596;28;19908;-78
2023/03/07 00:33:59;;;;;;;29.92;17.20;;;256.20;2252.80;;;;;;5061062;28;20048;-78
2023/03/07 00:36:25;;;;;;;34.67;19.30;;;256.50;2252.80;;;;;;5066020;28;20025;-80
2023/03/07 00:38:51;;;;;;;31.55;17.58;;;256.70;2252.80;;;;;;5067714;28;20060;-78
2023/03/07 00:41:23;;;;;;;23.98;14.23;;;256.70;2252.80;;;;;;5057580;28;20079;-82
2023/03/07 00:43:49;;;;;;;28.02;15.07;;;256.80;2252.80;;;;;;5066694;28;20059;-82
2023/03/07 00:46:17;;;;;;;38.35;19.02;;;256.70;2252.80;;;;;;5060848;28;20489;-81
2023/03/07 00:48:43;;;;;;;35.08;17.13;;;256.80;2252.80;;;;;;5066177;28;20434;-78
2023/03/07 00:51:11;;;;;;;38.40;20.52;;;256.90;2252.80;;;;;;5058929;28;20021;-82
2023/03/07 00:53:38;;;;;;;37.42;20.10;;;256.90;2252.80;;;;;;5066131;28;20043;-82
2023/03/07 00:56:13;;;;;;;28.90;18.17;;;256.80;2252.80;;;;;;5072727;28;20100;-82
2023/03/07 00:58:38;;;;;;;25.20;15.55;;;256.60;2252.80;;;;;;5068209;28;20035;-82
2023/03/07 01:01:06;;;;;;;27.83;15.00;;;256.70;2252.80;;;;;;5057060;28;20028;-81
2023/03/07 01:03:33;;;;;;;29.55;14.98;;;256.70;2252.80;;;;;;5070096;28;20023;-77
2023/03/07 01:06:03;;;;;;;27.17;15.15;;;256.80;2252.80;;;;;;5055997;28;20028;-82
2023/03/07 01:08:29;;;;;;;28.38;15.13;;;256.80;2252.80;;;;;;5055680;28;20020;-82
2023/03/07 01:10:58;;;;;;;24.17;14.32;;;256.70;2252.80;;;;;;5064240;28;20025;-80
2023/03/07 01:13:24;;;;;;;24.90;13.88;;;256.60;2252.80;;;;;;5072380;28;20039;-81
2023/03/07 01:15:50;;;;;;;25.95;14.05;;;256.50;2252.80;;;;;;5055757;28;20107;-81
2023/03/07 01:18:16;;;;;;;26.65;13.57;;;256.50;2252.80;;;;;;5055594;28;20032;-82
2023/03/07 01:20:41;;;;;;;;;;;256.20;2252.80;;;;;;5055021;28;20481;-82
2023/03/07 01:23:07;;;;;;;21.08;11.75;;;256.10;2252.80;;;;;;5053755;28;19905;-82
2023/03/07 01:25:37;;;;;;;;;;;256.30;2252.80;;;;;;5055027;28;20029;-80
2023/03/07 01:28:03;;;;;;;22.15;11.25;;;256.30;2252.80;;;;;;5066062;28;20318;-80
2023/03/07 01:30:29;;;;;;;22.33;12.93;;;256.20;2252.80;;;;;;5069473;28;20063;-80
2023/03/07 01:32:55;;;;;;;;;;;256.50;2252.80;;;;;;5074378;28;20044;-82
2023/03/07 01:35:21;;;;;;;22.90;12.20;;;256.10;2252.80;;;;;;5071213;28;19909;-82
2023/03/07 01:37:51;;;;;;;28.52;15.60;;;256.00;2252.80;;;;;;5063689;28;20031;-80
2023/03/07 01:40:18;;;;;;;41.13;19.90;;;256.00;2252.80;;;;;;5060898;28;20123;-82
2023/03/07 01:42:45;;;;;;;31.58;17.92;;;256.00;2252.80;;;;;;5063317;28;20052;-81
2023/03/07 01:45:13;;;;;;;33.08;16.40;;;256.10;2252.80;;;;;;5067045;28;20433;-81
2023/03/07 01:47:42;;;;;;;28.90;14.90;;;256.30;2252.80;;;;;;5055588;28;20028;-81
2023/03/07 01:50:17;;;;;;;26.20;14.85;;;256.40;2252.80;;;;;;5053854;28;20017;-82
2023/03/07 01:52:56;;;;;;;29.13;14.50;;;256.50;2252.80;;;;;;5050937;28;20036;-80
2023/03/07 01:55:28;;;;;;;31.50;16.27;;;256.40;2252.80;;;;;;5055207;28;20105;-82
2023/03/07 01:57:56;;;;;;;29.20;15.73;;;231.30;2252.80;;;;;;5054746;28;20441;-82
2023/03/07 02:00:27;;;;;;;28.25;15.30;;;256.00;2252.80;;;;;;5053891;28;20029;-79
2023/03/07 02:03:27;;;;;;;26.42;13.80;;;231.30;2252.80;;;;;;5072221;28;20021;-78
2023/03/07 02:05:57;;;;;;;27.60;12.60;;;231.30;2252.80;;;;;;5055425;28;20029;-80
2023/03/07 02:08:26;;;;;;;23.45;12.38;;;256.10;2252.80;;;;;;5053394;28;20489;-80
2023/03/07 02:10:53;;;;;;;24.02;12.45;;;256.30;2252.80;;;;;;5053029;28;20362;-81
2023/03/07 02:13:18;;;;;;;24.40;13.32;;;256.10;2252.80;;;;;;5066398;28;20036;-78
2023/03/07 02:15:44;;;;;;;24.70;13.23;;;231.30;2252.80;;;;;;5073243;28;20025;-82
2023/03/07 02:18:15;;;;;;;27.10;15.43;;;231.30;2252.80;;;;;;5073380;28;20020;-82
2023/03/07 02:21:08;;;;;;;25.60;13.55;;;231.30;2252.80;;;;;;5054463;28;20033;-83
2023/03/07 02:23:42;;;;;;;26.02;14.98;;;231.20;2252.80;;;;;;5070524;28;20031;-78
2023/03/07 02:26:27;;;;;;;25.90;14.07;;;231.20;2252.80;;;;;;5073060;28;20024;-79
2023/03/07 02:28:54;;;;;;;30.08;14.18;;;231.10;2252.80;;;;;;5074103;28;20028;-79
2023/03/07 02:31:20;;;;;;;24.67;13.85;;;256.10;2252.80;;;;;;5062267;28;20082;-81
2023/03/07 02:33:45;;;;;;;35.80;16.20;;;256.10;2252.80;;;;;;5072469;28;20641;-80
2023/03/07 02:36:18;;;;;;;29.08;15.63;;;256.20;2252.80;;;;;;5072762;28;20051;-81
2023/03/07 02:38:46;;;;;;;29.80;15.15;;;256.10;2252.80;;;;;;5060390;28;20461;-82
2023/03/07 02:41:14;;;;;;;32.15;16.88;;;256.00;2252.80;;;;;;5061426;28;20045;-79
2023/03/07 02:43:40;;;;;;;29.05;16.15;;;256.10;2252.80;;;;;;5065633;28;20069;-82
2023/03/07 02:46:05;;;;;;;28.02;16.05;;;256.20;2252.80;;;;;;5052803;28;20093;-81
2023/03/07 02:48:31;;;;;;;34.28;16.92;;;256.20;2252.80;;;;;;5052136;28;20078;-82
2023/03/07 02:50:56;;;;;;;;;;;256.20;2252.80;;;;;;5065826;28;20035;-82
2023/03/07 02:53:22;;;;;;;30.63;16.98;;;256.20;2252.80;;;;;;5059499;28;20009;-81
2023/03/07 02:55:48;;;;;;;27.20;16.27;;;256.10;2252.80;;;;;;5060799;28;20028;-83
2023/03/07 02:58:14;;;;;;;29.85;17.60;;;256.00;2252.80;;;;;;5072205;28;20400;-81
2023/03/07 03:00:39;;;;;;;;;;;256.10;2252.80;;;;;;5072769;28;20024;-78
2023/03/07 03:03:05;;;;;;;30.08;15.52;;;231.30;2252.80;;;;;;5052677;28;20384;-81
2023/03/07 03:05:31;;;;;;;;;;;231.10;2252.80;;;;;;5053001;28;20391;-81
2023/03/07 03:07:56;;;;;;;31.42;16.90;;;230.90;2252.80;;;;;;5061044;28;19911;-78
2023/03/07 03:10:22;;;;;;;;;;;230.90;2252.80;;;;;;5072697;28;20154;-81
2023/03/07 03:12:48;;;;;;;32.42;16.92;;;230.80;2252.80;;;;;;5072582;28;20419;-80
2023/03/07 03:15:13;;;;;;;29.10;15.43;;;230.80;2252.80;;;;;;5057292;28;20041;-78
2023/03/07 03:17:39;;;;;;;;;;;230.60;2252.80;;;;;;5053103;28;20461;-80
2023/03/07 03:20:10;;;;;;;29.65;16.00;;;230.60;2252.80;;;;;;5065079;28;20368;-81
2023/03/07 03:22:40;;;;;;;30.90;15.73;;;230.60;2252.80;;;;;;5052437;28;20037;-81
2023/03/07 03:25:08;;;;;;;27.23;15.98;;;230.60;2252.80;;;;;;5070270;28;20028;-81
2023/03/07 03:27:34;;;;;;;32.47;17.67;;;230.70;2252.80;;;;;;5072299;28;20028;-80
2023/03/07 03:30:00;;;;;;;33.03;16.50;;;230.80;2252.80;;;;;;5061047;28;20028;-78
2023/03/07 03:32:26;;;;;;;33.28;16.75;;;230.70;2252.80;;;;;;5056998;28;20053;-81
2023/03/07 03:34:51;;;;;;;32.35;17.10;;;230.80;2252.80;;;;;;5072453;28;20024;-81
2023/03/07 03:37:17;;;;;;;30.00;15.73;;;231.00;2252.80;;;;;;5071917;28;20028;-81
2023/03/07 03:39:43;;;;;;;31.95;17.02;;;231.20;2252.80;;;;;;5071262;28;20068;-82
2023/03/07 03:42:08;;;;;;;;;;;231.30;2252.80;;;;;;5053094;28;20037;-82
2023/03/07 03:44:34;;;;;;;34.05;16.23;;;256.00;2252.80;;;;;;5064849;28;20384;-81
2023/03/07 03:46:59;;;;;;;;;;;256.10;2252.80;;;;;;5066198;28;20424;-81
2023/03/07 03:49:26;;;;;;;29.38;16.60;;;256.20;2252.80;;;;;;5056028;28;20015;-80
2023/03/07 03:51:52;;;;;;;28.98;17.73;;;256.30;2252.80;;;;;;5062886;28;20048;-82
2023/03/07 03:54:17;;;;;;;36.78;18.40;;;256.40;2252.80;;;;;;5064822;28;20048;-81
2023/03/07 03:56:43;;;;;;;37.28;18.25;;;256.50;2252.80;;;;;;5062734;28;20033;-80
2023/03/07 03:59:09;;;;;;;;;;;256.40;2252.80;;;;;;5076205;28;20024;-81
2023/03/07 04:01:35;;;;;;;26.02;15.65;;;256.50;2252.80;;;;;;5068030;28;19920;-81
2023/03/07 04:04:00;;;;;;;;;;;256.50;2252.80;;;;;;5057526;28;20526;-81
2023/03/07 04:06:28;;;;;;;27.30;15.38;;;256.50;2252.80;;;;;;5075871;28;19905;-79
2023/03/07 04:08:54;;;;;;;31.08;16.75;;;256.30;2252.80;;;;;;5076535;28;20052;-78
2023/03/07 04:11:21;;;;;;;28.98;15.63;;;256.20;2252.80;;;;;;5067473;28;20092;-81
2023/03/07 04:13:47;;;;;;;29.50;17.10;;;256.20;2252.80;;;;;;5056232;28;20029;-81
2023/03/07 04:16:13;;;;;;;38.38;19.92;;;256.20;2252.80;;;;;;5065588;28;20029;-80
2023/03/07 04:18:39;;;;;;;38.33;20.88;;;256.20;2252.80;;;;;;5062038;28;20016;-79
2023/03/07 04:21:06;;;;;;;32.33;17.95;;;256.30;2252.80;;;;;;5076306;28;20040;-81
2023/03/07 04:23:32;;;;;;;28.38;17.90;;;256.30;2252.80;;;;;;5059083;28;20047;-78
2023/03/07 04:26:00;;;;;;;38.55;18.00;;;256.50;2252.80;;;;;;5059093;28;20024;-81
2023/03/07 04:28:41;;;;;;;36.50;17.85;;;256.50;2252.80;;;;;;5063862;28;20431;-79
2023/03/07 04:31:07;;;;;;;37.08;18.50;;;256.50;2252.80;;;;;;5063785;28;20479;-79
2023/03/07 04:33:33;;;;;;;34.28;18.65;;;256.40;2252.80;;;;;;5073614;28;20075;-82
2023/03/07 04:35:58;;;;;;;41.10;20.83;;;256.40;2252.80;;;;;;5063047;28;20061;-79
2023/03/07 04:38:24;;;;;;;46.70;23.33;;;256.40;2252.80;;;;;;5073280;28;20503;-77
2023/03/07 04:40:49;;;;;;;;;;;256.50;2252.80;;;;;;5055289;28;20047;-81
2023/03/07 04:43:15;;;;;;;34.03;18.23;;;256.50;2252.80;;;;;;5055245;28;19912;-82
2023/03/07 04:45:41;;;;;;;;;;;256.50;2252.80;;;;;;5065428;28;20476;-82
2023/03/07 04:48:07;;;;;;;36.80;21.30;;;256.60;2252.80;;;;;;5074960;28;19947;-78
2023/03/07 04:50:32;;;;;;;;;;;256.60;2252.80;;;;;;5074561;28;20032;-82
2023/03/07 04:52:58;;;;;;;50.63;26.92;;;256.60;2252.80;;;;;;5072250;28;19916;-81
2023/03/07 04:55:23;;;;;;;43.67;22.38;;;256.50;2252.80;;;;;;5054722;28;20029;-81
2023/03/07 04:57:50;;;;;;;;;;;256.60;2252.80;;;;;;5054774;28;20029;-76
2023/03/07 05:00:17;;;;;;;41.17;18.13;;;256.70;2252.80;;;;;;5064219;28;20375;-76
2023/03/07 05:02:43;;;;;;;40.72;20.38;;;256.60;2252.80;;;;;;5074037;28;20565;-80
2023/03/07 05:05:09;;;;;;;34.35;18.70;;;256.50;2252.80;;;;;;5063724;28;20078;-81
2023/03/07 05:07:35;;;;;;;27.80;16.88;;;256.50;2252.80;;;;;;5067899;28;20465;-80
2023/03/07 05:10:00;;;;;;;;;;;256.50;2252.80;;;;;;5065786;28;20476;-81
2023/03/07 05:12:26;;;;;;;29.83;15.60;;;256.60;2252.80;;;;;;5060854;28;19908;-82
2023/03/07 05:14:52;;;;;;;29.33;14.68;;;256.50;2252.80;;;;;;5074680;28;20489;-82
2023/03/07 05:17:19;;;;;;;29.42;16.55;;;256.50;2252.80;;;;;;5073911;28;20059;-77
2023/03/07 05:19:44;;;;;;;27.70;15.95;;;256.50;2252.80;;;;;;5074726;28;20020;-77
2023/03/07 05:22:10;;;;;;;26.92;15.50;;;256.50;2252.80;;;;;;5053741;28;20378;-82
2023/03/07 05:24:36;;;;;;;;;;;256.60;2252.80;;;;;;5067331;28;20031;-81
2023/03/07 05:27:01;;;;;;;24.25;12.70;;;256.60;2252.80;;;;;;5067300;28;19958;-81
2023/03/07 05:29:27;;;;;;;28.52;14.30;;;256.60;2252.80;;;;;;5068470;28;20381;-81
2023/03/07 05:31:53;;;;;;;25.73;13.25;;;256.50;2252.80;;;;;;5053908;28;20037;-82
2023/03/07 05:34:19;;;;;;;28.83;13.73;;;256.50;2252.80;;;;;;5055433;28;20044;-82
2023/03/07 05:36:45;;;;;;;24.88;13.57;;;256.50;2252.80;;;;;;5053818;28;20041;-82
2023/03/07 05:39:11;;;;;;;26.45;16.00;;;256.40;2252.80;;;;;;5062379;28;20021;-81
2023/03/07 05:41:37;;;;;;;22.23;13.80;;;256.40;2252.80;;;;;;5060689;28;20044;-83
2023/03/07 05:44:03;;;;;;;22.90;13.02;;;256.50;2252.80;;;;;;5073898;28;20016;-81
2023/03/07 05:46:28;;;;;;;21.50;12.18;;;256.50;2252.80;;;;;;5058471;28;20497;-82
2023/03/07 05:48:54;;;;;;;;;;;256.50;2252.80;;;;;;5062976;28;20476;-81
2023/03/07 05:51:20;;;;;;;22.95;12.65;;;256.40;2252.80;;;;;;5072430;28;19905;-82
2023/03/07 05:53:45;;;;;;;;;;;256.50;2252.80;;;;;;5054951;28;20466;-81
2023/03/07 05:56:12;;;;;;;32.83;15.32;;;256.50;2252.80;;;;;;5069340;28;19904;-77
2023/03/07 05:58:38;;;;;;;37.45;18.17;;;256.60;2252.80;;;;;;5064880;28;20432;-78
2023/03/07 06:01:04;;;;;;;37.67;17.52;;;256.70;2252.80;;;;;;5070211;28;20074;-81
2023/03/07 06:03:31;;;;;;;31.73;16.92;;;256.70;2252.80;;;;;;5062682;28;20028;-81
2023/03/07 06:05:56;;;;;;;30.30;16.73;;;256.80;2252.80;;;;;;5057480;28;20023;-80
2023/03/07 06:08:22;;;;;;;35.58;18.75;;;256.80;2252.80;;;;;;5062007;28;20119;-81
2023/03/07 06:10:52;;;;;;;;;;;256.90;2252.80;;;;;;5071059;28;20028;-82
2023/03/07 06:13:23;;;;;;;38.40;18.73;;;256.90;2252.80;;;;;;5070057;28;19908;-81
2023/03/07 06:15:53;;;;;;;34.55;18.92;;;256.80;2252.80;;;;;;5066680;28;20470;-80
2023/03/07 06:18:20;;;;;;;37.95;19.27;;;256.80;2252.80;;;;;;5066446;28;20528;-80
2023/03/07 06:20:57;;;;;;;44.72;21.95;;;256.80;2252.80;;;;;;5053221;28;20032;-82
2023/03/07 06:23:24;;;;;;;45.72;20.52;;;256.70;2252.80;;;;;;5067288;28;22075;-77
2023/03/07 06:25:50;;;;;;;36.72;19.88;;;256.80;2252.80;;;;;;5056260;28;20496;-79
2023/03/07 06:28:16;;;;;;;41.90;24.23;;;256.80;2252.80;;;;;;5089554;28;20033;-78
2023/03/07 06:30:41;;;;;;;55.65;29.27;;;256.80;2252.80;;;;;;5073886;28;20016;-83
2023/03/07 06:33:07;;;;;;;62.63;31.23;;;256.90;2252.80;;;;;;5072416;28;20043;-80
2023/03/07 06:35:33;;;;;;;;;;;256.90;2252.80;;;;;;5071712;28;20032;-81
2023/03/07 06:37:59;;;;;;;49.67;23.30;;;281.60;2278.40;;;;;;5053504;28;19958;-82
2023/03/07 06:40:24;;;;;;;;;;;256.90;2252.80;;;;;;5068348;28;20503;-81
2023/03/07 06:42:52;;;;;;;31.38;17.60;;;256.80;2252.80;;;;;;5073345;28;20345;-79
2023/03/07 06:45:18;;;;;;;27.90;16.02;;;256.70;2252.80;;;;;;5072880;28;20063;-79
2023/03/07 06:47:43;;;;;;;27.73;15.95;;;256.70;2252.80;;;;;;5090093;28;20033;-82
2023/03/07 06:50:10;;;;;;;32.97;18.50;;;256.80;2252.80;;;;;;5073001;28;20052;-82
2023/03/07 06:52:35;;;;;;;39.88;18.00;;;256.90;2252.80;;;;;;5073022;28;20017;-82
2023/03/07 06:55:02;;;;;;;41.78;19.38;;;256.80;2252.80;;;;;;5072698;28;20186;-81
2023/03/07 06:57:28;;;;;;;39.47;19.98;;;256.90;2252.80;;;;;;5061508;28;20496;-81
2023/03/07 06:59:54;;;;;;;34.05;18.90;;;256.90;2252.80;;;;;;5053777;28;20507;-81
2023/03/07 07:02:20;;;;;;;34.25;19.00;;;256.90;2252.80;;;;;;5065280;28;20040;-80
2023/03/07 07:04:46;;;;;;;34.30;17.88;;;281.60;2278.40;;;;;;5088795;28;20013;-77
2023/03/07 07:07:11;;;;;;;29.50;16.92;;;281.60;2278.40;;;;;;5089433;28;20020;-84
2023/03/07 07:09:37;;;;;;;32.25;17.75;;;281.60;2278.40;;;;;;5086414;28;20024;-78
2023/03/07 07:12:04;;;;;;;36.45;18.10;;;281.60;2278.40;;;;;;5079222;28;20491;-79
2023/03/07 07:14:32;;;;;;;36.15;21.65;;;281.60;2278.40;;;;;;5071205;28;20048;-79
2023/03/07 07:16:57;;;;;;;34.13;19.73;;;281.60;2278.40;;;;;;5073170;28;20066;-80
2023/03/07 07:19:25;;;;;;;28.23;17.08;;;281.70;2278.40;;;;;;5051843;28;20032;-78
2023/03/07 07:21:51;;;;;;;31.88;18.42;;;281.70;2278.40;;;;;;5052992;28;20029;-78
2023/03/07 07:24:17;;;;;;;45.80;25.27;;;281.80;2278.40;;;;;;5067142;28;20469;-85
2023/03/07 07:26:43;;;;;;;30.08;17.33;;;281.80;2278.40;;;;;;5069851;28;20059;-80
2023/03/07 07:29:08;;;;;;;29.35;16.02;;;281.80;2278.40;;;;;;5086411;28;20029;-77
2023/03/07 07:31:34;;;;;;;;;;;281.70;2278.40;;;;;;5076645;28;20028;-80
2023/03/07 07:34:00;;;;;;;25.20;14.75;;;281.70;2278.40;;;;;;5093368;28;19927;-82
2023/03/07 07:36:25;;;;;;;30.02;16.65;;;281.70;2278.40;;;;;;5077217;28;20551;-77
2023/03/07 07:38:51;;;;;;;;;;;281.80;2278.40;;;;;;5078234;28;20496;-77
2023/03/07 07:41:17;;;;;;;27.63;16.27;;;281.70;2278.40;;;;;;5064220;28;19916;-80
2023/03/07 07:43:45;;;;;;;;;;;281.80;2278.40;;;;;;5075563;28;20023;-82
2023/03/07 07:46:11;;;;;;;36.17;20.17;;;281.90;2278.40;;;;;;5077398;28;19908;-81
2023/03/07 07:48:37;;;;;;;36.67;20.08;;;282.00;2278.40;;;;;;5076060;28;20036;-80
2023/03/07 07:51:03;;;;;;;40.08;23.25;;;282.00;2278.40;;;;;;5059935;28;20029;-79
2023/03/07 07:53:29;;;;;;;46.85;21.83;;;282.10;2278.40;;;;;;5063858;28;20033;-78
2023/03/07 07:55:55;;;;;;;43.95;22.88;;;282.10;2278.40;;;;;;5069656;28;20112;-79
2023/03/07 07:58:21;;;;;;;42.30;22.83;;;282.20;2278.40;;;;;;5091194;28;20071;-90
2023/03/07 08:00:46;;;;;;;;;;;282.30;2278.40;;;;;;5064835;28;20047;-87
2023/03/07 08:03:12;;;;;;;31.05;18.00;;;282.30;2278.40;;;;;;5075240;28;19948;-77
2023/03/07 08:05:42;;;;;;;;;;;282.30;2278.40;;;;;;5076441;28;20028;-80
2023/03/07 08:08:07;;;;;;;28.67;15.90;;;282.30;2278.40;;;;;;5074915;28;19904;-78
2023/03/07 08:10:34;;;;;;;24.35;15.27;;;282.30;2278.40;;;;;;5076578;28;20039;-79
2023/03/07 08:13:00;;;;;;;27.95;15.77;;;282.20;2278.40;;;;;;5076162;28;20075;-79
2023/03/07 08:15:25;;;;;;;31.85;16.25;;;282.30;2278.40;;;;;;5075496;28;20481;-78
2023/03/07 08:17:51;;;;;;;19.55;11.82;;;282.30;2278.40;;;;;;5076414;28;20047;-78
2023/03/07 08:20:21;;;;;;;18.98;11.15;;;282.40;2278.40;;;;;;5091728;28;20021;-78
2023/03/07 08:22:48;;;;;;;19.10;10.43;;;282.50;2278.40;;;;;;5074699;28;20056;-77
2023/03/07 08:25:21;;;;;;;26.67;15.10;;;282.30;2278.40;;;;;;5091414;28;20110;-77
2023/03/07 08:27:47;;;;;;;20.23;10.77;;;282.30;2278.40;;;;;;5075724;28;20020;-78
2023/03/07 08:30:14;;;;;;;19.33;10.90;;;282.50;2278.40;;;;;;5075883;28;20020;-78
2023/03/07 08:32:39;;;;;;;16.52;8.60;;;307.20;2304.00;;;;;;5074544;28;20560;-78
2023/03/07 08:35:06;;;;;;;15.75;9.88;;;307.30;2304.00;;;;;;5075711;28;20108;-76
2023/03/07 08:37:32;;;;;;;13.52;7.90;;;307.40;2304.00;;;;;;5075602;28;20030;-77
2023/03/07 08:39:57;;;;;;;14.07;7.75;;;307.60;2304.00;;;;;;5074525;28;20020;-75
2023/03/07 08:42:23;;;;;;;16.67;9.32;;;307.60;2304.00;;;;;;5075153;28;20475;-76
2023/03/07 08:44:49;;;;;;;19.45;10.73;;;307.70;2304.00;;;;;;5075633;28;20033;-75
2023/03/07 08:47:14;;;;;;;15.50;9.98;;;307.70;2304.00;;;;;;5075366;28;20017;-78
2023/03/07 08:49:40;;;;;;;;;;;307.80;2304.00;;;;;;5076074;28;20036;-76
2023/03/07 08:52:05;;;;;;;17.58;10.02;;;307.70;2304.00;;;;;;5075271;28;19970;-76
2023/03/07 08:54:31;;;;;;;14.82;9.20;;;307.50;2304.00;;;;;;5075776;28;20025;-79
2023/03/07 08:56:58;;;;;;;17.83;10.30;;;307.30;2304.00;;;;;;5074219;28;20115;-77
2023/03/07 08:59:23;;;;;;;19.88;12.30;;;307.40;2304.00;;;;;;5074427;28;20112;-77
2023/03/07 09:01:49;;;;;;;21.05;10.90;;;307.40;2304.00;;;;;;5074320;28;20111;-77
2023/03/07 09:04:15;;;;;;;;;;;307.60;2304.00;;;;;;5075839;28;20016;-76
2023/03/07 09:06:40;;;;;;;16.70;8.18;;;307.70;2304.00;;;;;;5073763;28;19908;-76
2023/03/07 09:09:06;;;;;;;;;;;307.80;2304.00;;;;;;5076086;28;20021;-78
2023/03/07 09:11:32;;;;;;;13.60;9.98;;;307.80;2304.00;;;;;;5075110;28;19904;-76
2023/03/07 09:13:57;;;;;;;;;;;307.70;2304.00;;;;;;5075306;28;20033;-76
2023/03/07 09:16:23;;;;;;;18.15;9.93;;;307.80;2304.00;;;;;;5073258;28;20368;-75
2023/03/07 09:18:49;;;;;;;19.08;10.20;;;307.90;2304.00;;;;;;5080948;28;20036;-78
2023/03/07 09:21:15;;;;;;;19.17;10.57;;;308.00;2304.00;;;;;;5073032;28;20033;-78
2023/03/07 09:23:42;;;;;;;16.13;9.93;;;308.00;2304.00;;;;;;5090344;28;20389;-75
2023/03/07 09:26:09;;;;;;;15.88;9.00;;;307.90;2304.00;;;;;;5074715;28;20017;-75
2023/03/07 09:28:35;;;;;;;23.67;12.57;;;308.00;2304.00;;;;;;5090234;28;20032;-77
2023/03/07 09:31:09;;;;;;;21.52;11.35;;;307.90;2304.00;;;;;;5073557;28;20107;-77
2023/03/07 09:33:35;;;;;;;18.50;11.00;;;308.10;2304.00;;;;;;5074385;28;20131;-77
2023/03/07 09:36:06;;;;;;;20.05;11.82;;;332.80;2329.60;;;;;;5067661;28;20082;-78
2023/03/07 09:38:32;;;;;;;24.10;13.05;;;332.90;2329.60;;;;;;5067463;28;20028;-78
2023/03/07 09:41:20;;;;;;;23.75;14.18;;;332.80;2329.60;;;;;;5090258;28;20476;-77
2023/03/07 09:44:16;;;;;;;21.02;11.45;;;332.80;2329.60;;;;;;5074389;28;20047;-77
2023/03/07 09:47:09;;;;;;;19.43;11.10;;;332.90;2329.60;;;;;;5073908;28;20458;-79
2023/03/07 09:49:57;;;;;;;23.40;14.93;;;332.90;2329.60;;;;;;5074569;28;20016;-77
2023/03/07 09:52:26;;;;;;;22.75;11.32;;;308.10;2304.00;;;;;;5058388;28;20029;-77
2023/03/07 09:55:03;;;;;;;19.00;10.55;;;308.10;2304.00;;;;;;5070380;28;20031;-79
2023/03/07 09:57:41;;;;;;;20.42;10.63;;;332.80;2329.60;;;;;;5073010;28;20108;-80
2023/03/07 10:00:22;;;;;;;14.52;9.80;;;332.90;2329.60;;;;;;5069243;28;20102;-79
2023/03/07 10:03:21;;;;;;;17.35;8.57;;;332.90;2329.60;;;;;;5085410;28;20092;-78
2023/03/07 10:05:50;;;;;;;18.55;10.15;;;332.80;2329.60;;;;;;5071188;28;20029;-79
2023/03/07 10:08:29;;;;;;;16.45;10.40;;;308.00;2304.00;;;;;;5053966;28;20021;-76
2023/03/07 10:11:22;;;;;;;24.20;12.32;;;308.10;2304.00;;;;;;5053761;28;20017;-76
2023/03/07 10:13:50;;;;;;;20.13;12.13;;;332.80;2329.60;;;;;;5066415;28;20124;-77
2023/03/07 10:16:38;;;;;;;22.13;13.73;;;332.80;2329.60;;;;;;5072057;28;20047;-76
2023/03/07 10:19:09;;;;;;;31.40;16.15;;;308.00;2304.00;;;;;;5073444;28;20506;-76
2023/03/07 10:21:41;;;;;;;28.73;14.30;;;308.10;2304.00;;;;;;5071754;28;20052;-77
2023/03/07 10:24:27;;;;;;;28.05;15.10;;;332.90;2329.60;;;;;;5068958;28;20025;-76
2023/03/07 10:27:06;;;;;;;19.77;10.52;;;332.90;2329.60;;;;;;5065424;28;20051;-76
2023/03/07 10:29:45;;;;;;;24.80;11.23;;;332.90;2329.60;;;;;;5056339;28;20025;-76
2023/03/07 10:32:16;;;;;;;19.50;11.20;;;332.90;2329.60;;;;;;5066408;28;20025;-76
2023/03/07 10:34:42;;;;;;;18.38;10.43;;;332.80;2329.60;;;;;;5053546;28;20021;-76
2023/03/07 10:37:18;;;;;;;17.77;10.82;;;332.80;2329.60;;;;;;5057247;28;20058;-77
2023/03/07 10:39:51;;;;;;;19.38;10.60;;;333.20;2329.60;;;;;;5072999;28;20035;-76
2023/03/07 10:42:20;;;;;;;16.23;9.45;;;333.40;2329.60;;;;;;5069338;28;20093;-76
2023/03/07 10:44:47;;;;;;;15.55;9.40;;;333.50;2329.60;;;;;;5052678;28;20029;-76
2023/03/07 10:47:27;;;;;;;19.02;12.00;;;358.50;2329.60;;;;;;5060531;28;20350;-77
2023/03/07 10:50:17;;;;;;;20.58;11.00;;;358.60;2329.60;;;;;;5067657;28;20099;-77
2023/03/07 10:52:49;;;;;;;16.85;9.95;;;358.40;2329.60;;;;;;5054916;28;20017;-76
2023/03/07 10:55:43;;;;;;;16.13;9.85;;;333.60;2329.60;;;;;;5063340;28;20025;-75
2023/03/07 10:58:23;;;;;;;20.13;10.43;;;358.40;2329.60;;;;;;5059036;28;20048;-75
2023/03/07 11:00:58;;;;;;;26.48;9.15;;;358.50;2329.60;;;;;;5056579;28;20163;-76
2023/03/07 11:03:30;;;;;;;15.07;8.95;;;358.70;2329.60;;;;;;5053056;28;20032;-77
2023/03/07 11:05:55;;;;;;;12.95;8.05;;;358.80;2329.60;;;;;;5072064;28;20016;-81
2023/03/07 11:08:29;;;;;;;12.35;7.90;;;358.90;2329.60;;;;;;5072364;28;20031;-79
2023/03/07 11:10:55;;;;;;;14.25;7.20;;;359.00;2329.60;;;;;;5086120;28;20020;-83
2023/03/07 11:13:21;;;;;;;11.15;7.00;;;359.20;2329.60;;;;;;5059281;28;20503;-78
2023/03/07 11:15:48;;;;;;;9.50;6.00;;;359.00;2329.60;;;;;;5071991;28;20021;-79
2023/03/07 11:18:40;;;;;;;10.80;5.75;;;359.10;2329.60;;;;;;5073263;28;20021;-79
2023/03/07 11:21:27;;;;;;;13.93;6.57;;;359.00;2329.60;;;;;;5062953;28;20039;-79
2023/03/07 11:24:18;;;;;;;10.23;5.47;;;358.80;2329.60;;;;;;5071740;28;20079;-77
2023/03/07 11:26:44;;;;;;;12.35;5.70;;;358.60;2329.60;;;;;;5082922;28;20540;-78
2023/03/07 11:29:12;;;;;;;8.75;5.93;;;358.70;2329.60;;;;;;5085371;28;20108;-77
2023/03/07 11:32:05;;;;;;;10.38;6.80;;;359.00;2329.60;;;;;;5073188;28;20020;-79
2023/03/07 11:34:45;;;;;;;15.23;7.43;;;359.00;2329.60;;;;;;5071344;28;20045;-77
2023/03/07 11:37:22;;;;;;;14.32;7.72;;;358.90;2329.60;;;;;;5086540;28;20024;-79
2023/03/07 11:40:15;;;;;;;12.52;7.57;;;359.30;2329.60;;;;;;5051892;28;20489;-79
2023/03/07 11:42:49;;;;;;;10.70;7.18;;;384.40;2329.60;;;;;;5076050;28;20488;-78
2023/03/07 11:45:31;;;;;;;9.55;6.50;;;384.70;2329.60;;;;;;5072697;28;20048;-78
2023/03/07 11:48:05;;;;;;;11.63;6.22;;;409.70;2355.20;;;;;;5079983;28;20024;-79
2023/03/07 11:50:34;;;;;;;8.13;5.13;;;409.70;2355.20;;;;;;5063632;28;20058;-77
2023/03/07 11:53:15;;;;;;;21.67;6.97;;;410.20;2355.20;;;;;;5067383;28;20020;-78
2023/03/07 11:55:58;;;;;;;14.38;6.28;;;410.00;2355.20;;;;;;5069872;28;20034;-77
2023/03/07 11:59:12;;;;;;;11.57;6.65;;;410.20;2355.20;;;;;;5067959;28;20538;-77
2023/03/07 12:01:54;;;;;;;9.85;6.00;;;410.10;2355.20;;;;;;5065372;28;20389;-76
2023/03/07 12:04:51;;;;;;;12.95;5.88;;;409.90;2355.20;;;;;;5068525;28;20024;-78
2023/03/07 12:07:36;;;;;;;18.50;6.82;;;409.70;2355.20;;;;;;5067690;28;20026;-78
2023/03/07 12:10:21;;;;;;;14.75;7.18;;;384.50;2329.60;;;;;;5069404;28;20058;-79
2023/03/07 12:13:17;;;;;;;17.85;7.07;;;384.70;2329.60;;;;;;5068222;28;20035;-76
2023/03/07 12:16:15;;;;;;;11.45;6.93;;;409.70;2355.20;;;;;;5066532;28;20075;-77
2023/03/07 12:19:30;;;;;;;13.55;7.65;;;409.70;2355.20;;;;;;5069750;28;20027;-78
2023/03/07 12:22:27;;;;;;;14.98;7.82;;;409.60;2355.20;;;;;;5010141;28;20045;-77
2023/03/07 12:25:04;;;;;;;14.98;7.28;;;409.80;2355.20;;;;;;5001701;28;20022;-76